sensor_id;sensor_type;location;lat;lon;timestamp;temperature;humidity
42743;DHT22;28397;44.552;-0.848;2023-05-23T00:01:15;17.50;99.90
42743;DHT22;28397;44.552;-0.848;2023-05-23T00:03:41;17.60;99.90
42743;DHT22;28397;44.552;-0.848;2023-05-23T00:06:07;17.60;99.90
42743;DHT22;28397;44.552;-0.848;2023-05-23T00:08:33;17.60;99.90
42743;DHT22;28397;44.552;-0.848;2023-05-23T00:10:59;17.50;99.90
42743;DHT22;28397;44.552;-0.848;2023-05-23T00:13:25;17.50;99.90
42743;DHT22;28397;44.552;-0.848;2023-05-23T00:15:51;17.50;99.90
42743;DHT22;28397;44.552;-0.848;2023-05-23T00:18:17;17.60;99.90
42743;DHT22;28397;44.552;-0.848;2023-05-23T00:20:44;17.50;99.90
42743;DHT22;28397;44.552;-0.848;2023-05-23T00:23:11;17.60;99.90
42743;DHT22;28397;44.552;-0.848;2023-05-23T00:25:44;17.50;99.90
42743;DHT22;28397;44.552;-0.848;2023-05-23T00:28:13;17.50;99.90
42743;DHT22;28397;44.552;-0.848;2023-05-23T00:30:38;17.40;99.90
42743;DHT22;28397;44.552;-0.848;2023-05-23T00:33:04;17.50;99.90
42743;DHT22;28397;44.552;-0.848;2023-05-23T00:35:30;17.40;99.90
42743;DHT22;28397;44.552;-0.848;2023-05-23T00:37:56;17.50;99.90
42743;DHT22;28397;44.552;-0.848;2023-05-23T00:40:22;17.50;99.90
42743;DHT22;28397;44.552;-0.848;2023-05-23T00:42:48;17.50;99.90
42743;DHT22;28397;44.552;-0.848;2023-05-23T00:45:13;17.50;99.90
42743;DHT22;28397;44.552;-0.848;2023-05-23T00:47:40;17.60;99.90
42743;DHT22;28397;44.552;-0.848;2023-05-23T00:50:08;17.50;99.90
42743;DHT22;28397;44.552;-0.848;2023-05-23T00:52:34;17.50;99.90
42743;DHT22;28397;44.552;-0.848;2023-05-23T00:55:00;17.50;99.90
42743;DHT22;28397;44.552;-0.848;2023-05-23T00:57:26;17.50;99.90
42743;DHT22;28397;44.552;-0.848;2023-05-23T00:59:52;17.50;99.90
42743;DHT22;28397;44.552;-0.848;2023-05-23T01:02:18;17.60;99.90
42743;DHT22;28397;44.552;-0.848;2023-05-23T01:04:49;17.60;99.90
42743;DHT22;28397;44.552;-0.848;2023-05-23T01:07:19;17.50;99.90
42743;DHT22;28397;44.552;-0.848;2023-05-23T01:09:45;17.50;99.90
42743;DHT22;28397;44.552;-0.848;2023-05-23T01:12:49;17.50;99.90
42743;DHT22;28397;44.552;-0.848;2023-05-23T01:15:19;17.50;99.90
42743;DHT22;28397;44.552;-0.848;2023-05-23T01:18:17;17.50;99.90
42743;DHT22;28397;44.552;-0.848;2023-05-23T01:20:51;17.50;99.90
42743;DHT22;28397;44.552;-0.848;2023-05-23T01:26:21;17.40;99.90
42743;DHT22;28397;44.552;-0.848;2023-05-23T01:29:42;17.40;99.90
42743;DHT22;28397;44.552;-0.848;2023-05-23T01:31:43;17.40;99.90
42743;DHT22;28397;44.552;-0.848;2023-05-23T01:34:11;17.40;99.90
42743;DHT22;28397;44.552;-0.848;2023-05-23T01:36:42;17.40;99.90
42743;DHT22;28397;44.552;-0.848;2023-05-23T01:39:08;17.40;99.90
42743;DHT22;28397;44.552;-0.848;2023-05-23T01:41:34;17.40;99.90
42743;DHT22;28397;44.552;-0.848;2023-05-23T01:44:01;17.40;99.90
42743;DHT22;28397;44.552;-0.848;2023-05-23T01:46:27;17.40;99.90
42743;DHT22;28397;44.552;-0.848;2023-05-23T01:48:54;17.40;99.90
42743;DHT22;28397;44.552;-0.848;2023-05-23T01:51:22;17.30;99.90
42743;DHT22;28397;44.552;-0.848;2023-05-23T01:53:51;17.30;99.90
42743;DHT22;28397;44.552;-0.848;2023-05-23T01:56:18;17.30;99.90
42743;DHT22;28397;44.552;-0.848;2023-05-23T01:58:44;17.40;99.90
42743;DHT22;28397;44.552;-0.848;2023-05-23T02:01:10;17.30;99.90
42743;DHT22;28397;44.552;-0.848;2023-05-23T02:03:36;17.40;99.90
42743;DHT22;28397;44.552;-0.848;2023-05-23T02:06:01;17.40;99.90
42743;DHT22;28397;44.552;-0.848;2023-05-23T02:08:27;17.50;99.90
42743;DHT22;28397;44.552;-0.848;2023-05-23T02:10:53;17.40;99.90
42743;DHT22;28397;44.552;-0.848;2023-05-23T02:13:18;17.40;99.90
42743;DHT22;28397;44.552;-0.848;2023-05-23T02:15:44;17.40;99.90
42743;DHT22;28397;44.552;-0.848;2023-05-23T02:18:10;17.40;99.90
42743;DHT22;28397;44.552;-0.848;2023-05-23T02:20:35;17.40;99.90
42743;DHT22;28397;44.552;-0.848;2023-05-23T02:23:01;17.50;99.90
42743;DHT22;28397;44.552;-0.848;2023-05-23T02:25:27;17.40;99.90
42743;DHT22;28397;44.552;-0.848;2023-05-23T02:27:52;17.50;99.90
42743;DHT22;28397;44.552;-0.848;2023-05-23T02:30:18;17.40;99.90
42743;DHT22;28397;44.552;-0.848;2023-05-23T02:32:43;17.40;99.90
42743;DHT22;28397;44.552;-0.848;2023-05-23T02:35:11;17.30;99.90
42743;DHT22;28397;44.552;-0.848;2023-05-23T02:37:36;17.30;99.90
42743;DHT22;28397;44.552;-0.848;2023-05-23T02:40:03;17.30;99.90
42743;DHT22;28397;44.552;-0.848;2023-05-23T02:42:32;17.30;99.90
42743;DHT22;28397;44.552;-0.848;2023-05-23T02:44:57;17.30;99.90
42743;DHT22;28397;44.552;-0.848;2023-05-23T02:47:23;17.30;99.90
42743;DHT22;28397;44.552;-0.848;2023-05-23T02:49:49;17.20;99.90
42743;DHT22;28397;44.552;-0.848;2023-05-23T02:52:14;17.20;99.90
42743;DHT22;28397;44.552;-0.848;2023-05-23T02:54:41;17.20;99.90
42743;DHT22;28397;44.552;-0.848;2023-05-23T02:57:07;17.20;99.90
42743;DHT22;28397;44.552;-0.848;2023-05-23T02:59:33;17.20;99.90
42743;DHT22;28397;44.552;-0.848;2023-05-23T03:01:59;17.20;99.90
42743;DHT22;28397;44.552;-0.848;2023-05-23T03:04:24;17.20;99.90
42743;DHT22;28397;44.552;-0.848;2023-05-23T03:06:50;17.20;99.90
42743;DHT22;28397;44.552;-0.848;2023-05-23T03:09:19;17.20;99.90
42743;DHT22;28397;44.552;-0.848;2023-05-23T03:11:45;17.20;99.90
42743;DHT22;28397;44.552;-0.848;2023-05-23T03:14:11;17.10;99.90
42743;DHT22;28397;44.552;-0.848;2023-05-23T03:16:37;17.10;99.90
42743;DHT22;28397;44.552;-0.848;2023-05-23T03:19:02;17.10;99.90
42743;DHT22;28397;44.552;-0.848;2023-05-23T03:21:30;17.10;99.90
42743;DHT22;28397;44.552;-0.848;2023-05-23T03:23:56;17.10;99.90
42743;DHT22;28397;44.552;-0.848;2023-05-23T03:26:22;17.10;99.90
42743;DHT22;28397;44.552;-0.848;2023-05-23T03:28:48;17.10;99.90
42743;DHT22;28397;44.552;-0.848;2023-05-23T03:31:15;17.10;99.90
42743;DHT22;28397;44.552;-0.848;2023-05-23T03:33:41;17.10;99.90
42743;DHT22;28397;44.552;-0.848;2023-05-23T03:36:07;17.10;99.90
42743;DHT22;28397;44.552;-0.848;2023-05-23T03:38:33;17.00;99.90
42743;DHT22;28397;44.552;-0.848;2023-05-23T03:40:58;17.00;99.90
42743;DHT22;28397;44.552;-0.848;2023-05-23T03:43:24;17.00;99.90
42743;DHT22;28397;44.552;-0.848;2023-05-23T03:45:50;17.10;99.90
42743;DHT22;28397;44.552;-0.848;2023-05-23T03:48:15;17.10;99.90
42743;DHT22;28397;44.552;-0.848;2023-05-23T03:50:41;17.10;99.90
42743;DHT22;28397;44.552;-0.848;2023-05-23T03:53:07;17.10;99.90
42743;DHT22;28397;44.552;-0.848;2023-05-23T03:55:32;17.00;99.90
42743;DHT22;28397;44.552;-0.848;2023-05-23T03:57:59;17.00;99.90
42743;DHT22;28397;44.552;-0.848;2023-05-23T04:00:25;17.00;99.90
42743;DHT22;28397;44.552;-0.848;2023-05-23T04:02:50;16.90;99.90
42743;DHT22;28397;44.552;-0.848;2023-05-23T04:05:16;16.90;99.90
42743;DHT22;28397;44.552;-0.848;2023-05-23T04:07:43;16.80;99.90
42743;DHT22;28397;44.552;-0.848;2023-05-23T04:10:09;16.70;99.90
42743;DHT22;28397;44.552;-0.848;2023-05-23T04:12:35;16.70;99.90
42743;DHT22;28397;44.552;-0.848;2023-05-23T04:15:01;16.70;99.90
42743;DHT22;28397;44.552;-0.848;2023-05-23T04:17:28;16.70;99.90
42743;DHT22;28397;44.552;-0.848;2023-05-23T04:19:56;16.70;99.90
42743;DHT22;28397;44.552;-0.848;2023-05-23T04:22:22;16.70;99.90
42743;DHT22;28397;44.552;-0.848;2023-05-23T04:24:47;16.70;99.90
42743;DHT22;28397;44.552;-0.848;2023-05-23T04:27:13;16.70;99.90
42743;DHT22;28397;44.552;-0.848;2023-05-23T04:29:39;16.70;99.90
42743;DHT22;28397;44.552;-0.848;2023-05-23T04:32:05;16.70;99.90
42743;DHT22;28397;44.552;-0.848;2023-05-23T04:34:31;16.80;99.90
42743;DHT22;28397;44.552;-0.848;2023-05-23T04:37:00;16.70;99.90
42743;DHT22;28397;44.552;-0.848;2023-05-23T04:39:29;16.60;99.90
42743;DHT22;28397;44.552;-0.848;2023-05-23T04:41:55;16.60;99.90
42743;DHT22;28397;44.552;-0.848;2023-05-23T04:44:22;16.60;99.90
42743;DHT22;28397;44.552;-0.848;2023-05-23T04:46:48;16.50;99.90
42743;DHT22;28397;44.552;-0.848;2023-05-23T04:49:15;16.40;99.90
42743;DHT22;28397;44.552;-0.848;2023-05-23T04:51:41;16.50;99.90
42743;DHT22;28397;44.552;-0.848;2023-05-23T04:54:07;16.50;99.90
42743;DHT22;28397;44.552;-0.848;2023-05-23T04:56:32;16.40;99.90
42743;DHT22;28397;44.552;-0.848;2023-05-23T04:58:58;16.40;99.90
42743;DHT22;28397;44.552;-0.848;2023-05-23T05:01:26;16.40;99.90
42743;DHT22;28397;44.552;-0.848;2023-05-23T05:03:52;16.40;99.90
42743;DHT22;28397;44.552;-0.848;2023-05-23T05:06:19;16.50;99.90
42743;DHT22;28397;44.552;-0.848;2023-05-23T05:08:45;16.50;99.90
42743;DHT22;28397;44.552;-0.848;2023-05-23T05:11:11;16.50;99.90
42743;DHT22;28397;44.552;-0.848;2023-05-23T05:13:37;16.50;99.90
42743;DHT22;28397;44.552;-0.848;2023-05-23T05:16:03;16.50;99.90
42743;DHT22;28397;44.552;-0.848;2023-05-23T05:18:29;16.50;99.90
42743;DHT22;28397;44.552;-0.848;2023-05-23T05:20:55;16.60;99.90
42743;DHT22;28397;44.552;-0.848;2023-05-23T05:23:25;16.60;99.90
42743;DHT22;28397;44.552;-0.848;2023-05-23T05:25:55;16.60;99.90
42743;DHT22;28397;44.552;-0.848;2023-05-23T05:28:21;16.60;99.90
42743;DHT22;28397;44.552;-0.848;2023-05-23T05:30:46;16.60;99.90
42743;DHT22;28397;44.552;-0.848;2023-05-23T05:33:13;16.60;99.90
42743;DHT22;28397;44.552;-0.848;2023-05-23T05:35:38;16.60;99.90
42743;DHT22;28397;44.552;-0.848;2023-05-23T05:38:04;16.60;99.90
42743;DHT22;28397;44.552;-0.848;2023-05-23T05:40:33;16.60;99.90
42743;DHT22;28397;44.552;-0.848;2023-05-23T05:43:00;16.60;99.90
42743;DHT22;28397;44.552;-0.848;2023-05-23T05:45:26;16.60;99.90
42743;DHT22;28397;44.552;-0.848;2023-05-23T05:47:52;16.60;99.90
42743;DHT22;28397;44.552;-0.848;2023-05-23T05:50:17;16.60;99.90
42743;DHT22;28397;44.552;-0.848;2023-05-23T05:52:45;16.60;99.90
42743;DHT22;28397;44.552;-0.848;2023-05-23T05:55:10;16.60;99.90
42743;DHT22;28397;44.552;-0.848;2023-05-23T05:57:37;16.60;99.90
42743;DHT22;28397;44.552;-0.848;2023-05-23T06:00:05;16.50;99.90
42743;DHT22;28397;44.552;-0.848;2023-05-23T06:02:37;16.50;99.90
42743;DHT22;28397;44.552;-0.848;2023-05-23T06:05:03;16.50;99.90
42743;DHT22;28397;44.552;-0.848;2023-05-23T06:07:30;16.40;99.90
42743;DHT22;28397;44.552;-0.848;2023-05-23T06:09:56;16.40;99.90
42743;DHT22;28397;44.552;-0.848;2023-05-23T06:12:22;16.40;99.90
42743;DHT22;28397;44.552;-0.848;2023-05-23T06:14:47;16.40;99.90
42743;DHT22;28397;44.552;-0.848;2023-05-23T06:17:13;16.40;99.90
42743;DHT22;28397;44.552;-0.848;2023-05-23T06:19:39;16.40;99.90
42743;DHT22;28397;44.552;-0.848;2023-05-23T06:22:04;16.40;99.90
42743;DHT22;28397;44.552;-0.848;2023-05-23T06:24:30;16.40;99.90
42743;DHT22;28397;44.552;-0.848;2023-05-23T06:26:56;16.40;99.90
42743;DHT22;28397;44.552;-0.848;2023-05-23T06:29:21;16.40;99.90
42743;DHT22;28397;44.552;-0.848;2023-05-23T06:31:47;16.50;99.90
42743;DHT22;28397;44.552;-0.848;2023-05-23T06:34:13;16.50;99.90
42743;DHT22;28397;44.552;-0.848;2023-05-23T06:36:38;16.50;99.90
42743;DHT22;28397;44.552;-0.848;2023-05-23T06:39:04;16.60;99.90
42743;DHT22;28397;44.552;-0.848;2023-05-23T06:41:30;16.60;99.90
42743;DHT22;28397;44.552;-0.848;2023-05-23T06:43:55;16.70;99.90
42743;DHT22;28397;44.552;-0.848;2023-05-23T06:46:21;16.80;99.90
42743;DHT22;28397;44.552;-0.848;2023-05-23T06:48:46;16.80;99.90
42743;DHT22;28397;44.552;-0.848;2023-05-23T06:51:12;16.90;99.90
42743;DHT22;28397;44.552;-0.848;2023-05-23T06:53:38;17.00;99.90
42743;DHT22;28397;44.552;-0.848;2023-05-23T06:56:03;17.10;99.90
42743;DHT22;28397;44.552;-0.848;2023-05-23T06:58:29;17.20;99.90
42743;DHT22;28397;44.552;-0.848;2023-05-23T07:00:55;17.20;99.90
42743;DHT22;28397;44.552;-0.848;2023-05-23T07:03:21;17.30;99.90
42743;DHT22;28397;44.552;-0.848;2023-05-23T07:05:46;17.40;99.90
42743;DHT22;28397;44.552;-0.848;2023-05-23T07:08:12;17.50;99.90
42743;DHT22;28397;44.552;-0.848;2023-05-23T07:10:38;17.50;99.90
42743;DHT22;28397;44.552;-0.848;2023-05-23T07:13:05;17.60;99.90
42743;DHT22;28397;44.552;-0.848;2023-05-23T07:15:31;17.70;99.90
42743;DHT22;28397;44.552;-0.848;2023-05-23T07:17:57;17.80;99.90
42743;DHT22;28397;44.552;-0.848;2023-05-23T07:20:22;17.80;99.90
42743;DHT22;28397;44.552;-0.848;2023-05-23T07:22:48;17.80;99.90
42743;DHT22;28397;44.552;-0.848;2023-05-23T07:25:16;17.90;99.90
42743;DHT22;28397;44.552;-0.848;2023-05-23T07:27:41;17.90;99.90
42743;DHT22;28397;44.552;-0.848;2023-05-23T07:30:08;18.00;99.90
42743;DHT22;28397;44.552;-0.848;2023-05-23T07:32:36;18.00;99.90
42743;DHT22;28397;44.552;-0.848;2023-05-23T07:35:02;18.10;99.90
42743;DHT22;28397;44.552;-0.848;2023-05-23T07:37:28;18.10;99.90
42743;DHT22;28397;44.552;-0.848;2023-05-23T07:39:54;18.20;99.90
42743;DHT22;28397;44.552;-0.848;2023-05-23T07:42:19;18.20;99.90
42743;DHT22;28397;44.552;-0.848;2023-05-23T07:44:45;18.20;99.90
42743;DHT22;28397;44.552;-0.848;2023-05-23T07:47:11;18.20;99.90
42743;DHT22;28397;44.552;-0.848;2023-05-23T07:49:36;18.20;99.90
42743;DHT22;28397;44.552;-0.848;2023-05-23T07:52:02;18.30;99.90
42743;DHT22;28397;44.552;-0.848;2023-05-23T07:54:28;18.30;99.90
42743;DHT22;28397;44.552;-0.848;2023-05-23T07:56:53;18.40;99.90
42743;DHT22;28397;44.552;-0.848;2023-05-23T07:59:19;18.40;99.90
42743;DHT22;28397;44.552;-0.848;2023-05-23T08:01:46;18.50;99.90
42743;DHT22;28397;44.552;-0.848;2023-05-23T08:04:16;18.60;99.90
42743;DHT22;28397;44.552;-0.848;2023-05-23T08:06:41;18.70;99.90
42743;DHT22;28397;44.552;-0.848;2023-05-23T08:09:07;18.70;99.90
42743;DHT22;28397;44.552;-0.848;2023-05-23T08:11:33;18.80;99.90
42743;DHT22;28397;44.552;-0.848;2023-05-23T08:13:58;18.80;99.90
42743;DHT22;28397;44.552;-0.848;2023-05-23T08:16:24;18.90;99.90
42743;DHT22;28397;44.552;-0.848;2023-05-23T08:18:52;18.80;99.90
42743;DHT22;28397;44.552;-0.848;2023-05-23T08:21:17;18.90;99.90
42743;DHT22;28397;44.552;-0.848;2023-05-23T08:23:43;19.00;99.90
42743;DHT22;28397;44.552;-0.848;2023-05-23T08:26:09;19.00;99.90
42743;DHT22;28397;44.552;-0.848;2023-05-23T08:28:34;19.10;99.90
42743;DHT22;28397;44.552;-0.848;2023-05-23T08:31:00;19.20;99.90
42743;DHT22;28397;44.552;-0.848;2023-05-23T08:33:26;19.30;99.90
42743;DHT22;28397;44.552;-0.848;2023-05-23T08:35:51;19.40;99.90
42743;DHT22;28397;44.552;-0.848;2023-05-23T08:38:17;19.50;99.90
42743;DHT22;28397;44.552;-0.848;2023-05-23T08:40:49;19.60;99.90
42743;DHT22;28397;44.552;-0.848;2023-05-23T08:43:17;19.60;99.90
42743;DHT22;28397;44.552;-0.848;2023-05-23T08:45:44;19.70;99.90
42743;DHT22;28397;44.552;-0.848;2023-05-23T08:48:12;19.70;99.90
42743;DHT22;28397;44.552;-0.848;2023-05-23T08:50:42;19.80;99.90
42743;DHT22;28397;44.552;-0.848;2023-05-23T08:53:14;19.90;99.90
42743;DHT22;28397;44.552;-0.848;2023-05-23T08:55:48;20.00;99.90
42743;DHT22;28397;44.552;-0.848;2023-05-23T08:58:17;20.10;99.90
42743;DHT22;28397;44.552;-0.848;2023-05-23T09:00:47;20.10;99.90
42743;DHT22;28397;44.552;-0.848;2023-05-23T09:03:14;20.10;99.90
42743;DHT22;28397;44.552;-0.848;2023-05-23T09:05:41;20.10;99.90
42743;DHT22;28397;44.552;-0.848;2023-05-23T09:08:06;20.20;99.90
42743;DHT22;28397;44.552;-0.848;2023-05-23T09:10:32;20.20;99.90
42743;DHT22;28397;44.552;-0.848;2023-05-23T09:12:58;20.20;99.90
42743;DHT22;28397;44.552;-0.848;2023-05-23T09:15:24;20.30;99.90
42743;DHT22;28397;44.552;-0.848;2023-05-23T09:17:51;20.30;99.90
42743;DHT22;28397;44.552;-0.848;2023-05-23T09:20:17;20.40;99.90
42743;DHT22;28397;44.552;-0.848;2023-05-23T09:22:47;20.30;99.90
42743;DHT22;28397;44.552;-0.848;2023-05-23T09:25:13;20.40;99.90
42743;DHT22;28397;44.552;-0.848;2023-05-23T09:27:39;20.30;99.90
42743;DHT22;28397;44.552;-0.848;2023-05-23T09:30:09;20.40;99.90
42743;DHT22;28397;44.552;-0.848;2023-05-23T09:32:36;20.30;99.90
42743;DHT22;28397;44.552;-0.848;2023-05-23T09:35:06;20.20;99.90
42743;DHT22;28397;44.552;-0.848;2023-05-23T09:37:37;20.20;99.90
42743;DHT22;28397;44.552;-0.848;2023-05-23T09:40:14;20.20;99.90
42743;DHT22;28397;44.552;-0.848;2023-05-23T09:42:44;20.10;99.90
42743;DHT22;28397;44.552;-0.848;2023-05-23T09:45:14;20.10;99.90
42743;DHT22;28397;44.552;-0.848;2023-05-23T09:47:53;20.20;99.90
42743;DHT22;28397;44.552;-0.848;2023-05-23T09:50:19;20.30;99.90
42743;DHT22;28397;44.552;-0.848;2023-05-23T09:52:45;20.30;99.90
42743;DHT22;28397;44.552;-0.848;2023-05-23T09:55:11;20.30;99.90
42743;DHT22;28397;44.552;-0.848;2023-05-23T09:57:40;20.50;99.90
42743;DHT22;28397;44.552;-0.848;2023-05-23T10:00:07;20.50;99.90
42743;DHT22;28397;44.552;-0.848;2023-05-23T10:05:34;20.80;99.90
42743;DHT22;28397;44.552;-0.848;2023-05-23T10:08:04;20.70;99.90
42743;DHT22;28397;44.552;-0.848;2023-05-23T10:10:32;20.80;99.90
42743;DHT22;28397;44.552;-0.848;2023-05-23T10:13:01;20.80;99.90
42743;DHT22;28397;44.552;-0.848;2023-05-23T10:15:33;20.80;99.90
42743;DHT22;28397;44.552;-0.848;2023-05-23T10:18:15;20.90;99.90
42743;DHT22;28397;44.552;-0.848;2023-05-23T10:20:46;21.00;99.90
42743;DHT22;28397;44.552;-0.848;2023-05-23T10:23:13;21.00;99.90
42743;DHT22;28397;44.552;-0.848;2023-05-23T10:25:41;21.00;99.90
42743;DHT22;28397;44.552;-0.848;2023-05-23T10:28:08;21.10;99.90
42743;DHT22;28397;44.552;-0.848;2023-05-23T10:30:34;21.20;99.90
42743;DHT22;28397;44.552;-0.848;2023-05-23T10:33:01;21.20;99.90
42743;DHT22;28397;44.552;-0.848;2023-05-23T10:39:03;21.30;99.90
42743;DHT22;28397;44.552;-0.848;2023-05-23T10:41:38;21.40;99.90
42743;DHT22;28397;44.552;-0.848;2023-05-23T10:44:19;21.40;99.90
42743;DHT22;28397;44.552;-0.848;2023-05-23T10:46:52;21.40;99.90
42743;DHT22;28397;44.552;-0.848;2023-05-23T10:49:18;21.60;99.90
42743;DHT22;28397;44.552;-0.848;2023-05-23T10:51:50;21.60;99.90
42743;DHT22;28397;44.552;-0.848;2023-05-23T10:54:19;21.70;99.90
42743;DHT22;28397;44.552;-0.848;2023-05-23T10:56:45;21.80;99.90
42743;DHT22;28397;44.552;-0.848;2023-05-23T10:59:20;21.90;99.90
42743;DHT22;28397;44.552;-0.848;2023-05-23T11:01:50;21.90;99.90
42743;DHT22;28397;44.552;-0.848;2023-05-23T11:04:24;22.10;99.90
42743;DHT22;28397;44.552;-0.848;2023-05-23T11:06:53;22.10;99.90
42743;DHT22;28397;44.552;-0.848;2023-05-23T11:09:19;22.20;99.90
42743;DHT22;28397;44.552;-0.848;2023-05-23T11:12:06;22.20;99.90
42743;DHT22;28397;44.552;-0.848;2023-05-23T11:19:36;22.50;99.90
42743;DHT22;28397;44.552;-0.848;2023-05-23T11:22:03;22.60;99.90
42743;DHT22;28397;44.552;-0.848;2023-05-23T11:24:52;22.60;99.90
42743;DHT22;28397;44.552;-0.848;2023-05-23T11:27:34;22.80;99.90
42743;DHT22;28397;44.552;-0.848;2023-05-23T11:30:16;22.70;99.90
42743;DHT22;28397;44.552;-0.848;2023-05-23T11:32:51;22.80;99.90
42743;DHT22;28397;44.552;-0.848;2023-05-23T11:35:18;22.90;99.90
42743;DHT22;28397;44.552;-0.848;2023-05-23T11:37:44;22.90;99.90
42743;DHT22;28397;44.552;-0.848;2023-05-23T11:40:39;23.00;99.90
42743;DHT22;28397;44.552;-0.848;2023-05-23T11:43:10;22.80;99.90
42743;DHT22;28397;44.552;-0.848;2023-05-23T11:45:37;22.80;99.90
42743;DHT22;28397;44.552;-0.848;2023-05-23T11:48:14;22.80;99.90
42743;DHT22;28397;44.552;-0.848;2023-05-23T11:53:13;22.90;99.90
42743;DHT22;28397;44.552;-0.848;2023-05-23T11:55:47;22.90;99.90
42743;DHT22;28397;44.552;-0.848;2023-05-23T11:58:13;23.10;99.90
42743;DHT22;28397;44.552;-0.848;2023-05-23T12:00:43;23.10;99.90
42743;DHT22;28397;44.552;-0.848;2023-05-23T12:03:09;23.20;99.90
42743;DHT22;28397;44.552;-0.848;2023-05-23T12:05:36;23.20;99.90
42743;DHT22;28397;44.552;-0.848;2023-05-23T12:08:01;23.20;99.90
42743;DHT22;28397;44.552;-0.848;2023-05-23T12:10:27;23.30;99.90
42743;DHT22;28397;44.552;-0.848;2023-05-23T12:12:53;23.30;99.90
42743;DHT22;28397;44.552;-0.848;2023-05-23T12:15:24;23.40;99.90
42743;DHT22;28397;44.552;-0.848;2023-05-23T12:17:53;23.40;99.90
42743;DHT22;28397;44.552;-0.848;2023-05-23T12:20:19;23.40;99.90
42743;DHT22;28397;44.552;-0.848;2023-05-23T12:22:45;23.40;99.90
42743;DHT22;28397;44.552;-0.848;2023-05-23T12:25:11;23.50;99.90
42743;DHT22;28397;44.552;-0.848;2023-05-23T12:27:39;23.50;99.90
42743;DHT22;28397;44.552;-0.848;2023-05-23T12:30:12;23.60;99.90
42743;DHT22;28397;44.552;-0.848;2023-05-23T12:32:42;23.70;99.90
42743;DHT22;28397;44.552;-0.848;2023-05-23T12:35:10;23.80;99.90
42743;DHT22;28397;44.552;-0.848;2023-05-23T12:37:42;23.90;99.90
42743;DHT22;28397;44.552;-0.848;2023-05-23T12:40:15;24.10;99.90
42743;DHT22;28397;44.552;-0.848;2023-05-23T12:42:46;24.20;99.90
42743;DHT22;28397;44.552;-0.848;2023-05-23T12:45:14;24.50;99.90
42743;DHT22;28397;44.552;-0.848;2023-05-23T12:47:40;24.60;99.90
42743;DHT22;28397;44.552;-0.848;2023-05-23T12:50:06;24.60;99.90
42743;DHT22;28397;44.552;-0.848;2023-05-23T12:52:32;24.70;99.90
42743;DHT22;28397;44.552;-0.848;2023-05-23T12:54:57;24.70;99.90
42743;DHT22;28397;44.552;-0.848;2023-05-23T12:57:23;24.60;99.90
42743;DHT22;28397;44.552;-0.848;2023-05-23T12:59:49;24.70;99.90
42743;DHT22;28397;44.552;-0.848;2023-05-23T13:02:14;24.80;99.90
42743;DHT22;28397;44.552;-0.848;2023-05-23T13:04:40;25.20;99.90
42743;DHT22;28397;44.552;-0.848;2023-05-23T13:07:06;25.40;99.90
42743;DHT22;28397;44.552;-0.848;2023-05-23T13:09:31;25.20;99.90
42743;DHT22;28397;44.552;-0.848;2023-05-23T13:11:57;25.20;99.90
42743;DHT22;28397;44.552;-0.848;2023-05-23T13:14:23;25.30;99.90
42743;DHT22;28397;44.552;-0.848;2023-05-23T13:16:48;25.30;99.90
42743;DHT22;28397;44.552;-0.848;2023-05-23T13:19:14;25.30;99.90
42743;DHT22;28397;44.552;-0.848;2023-05-23T13:21:40;25.10;99.90
42743;DHT22;28397;44.552;-0.848;2023-05-23T13:24:06;24.90;99.90
42743;DHT22;28397;44.552;-0.848;2023-05-23T13:26:33;24.40;99.90
42743;DHT22;28397;44.552;-0.848;2023-05-23T13:28:59;24.20;99.90
42743;DHT22;28397;44.552;-0.848;2023-05-23T13:31:25;24.20;99.90
42743;DHT22;28397;44.552;-0.848;2023-05-23T13:33:51;24.20;99.90
42743;DHT22;28397;44.552;-0.848;2023-05-23T13:36:17;24.20;99.90
42743;DHT22;28397;44.552;-0.848;2023-05-23T13:38:42;24.90;99.90
42743;DHT22;28397;44.552;-0.848;2023-05-23T13:41:08;25.40;99.90
42743;DHT22;28397;44.552;-0.848;2023-05-23T13:43:34;25.60;99.90
42743;DHT22;28397;44.552;-0.848;2023-05-23T13:46:00;25.90;99.90
42743;DHT22;28397;44.552;-0.848;2023-05-23T13:48:27;26.20;99.90
42743;DHT22;28397;44.552;-0.848;2023-05-23T13:50:54;26.30;99.90
42743;DHT22;28397;44.552;-0.848;2023-05-23T13:53:20;26.10;99.90
42743;DHT22;28397;44.552;-0.848;2023-05-23T13:55:45;26.20;99.90
42743;DHT22;28397;44.552;-0.848;2023-05-23T13:58:11;26.50;99.90
42743;DHT22;28397;44.552;-0.848;2023-05-23T14:00:38;26.60;99.90
42743;DHT22;28397;44.552;-0.848;2023-05-23T14:03:03;26.90;99.90
42743;DHT22;28397;44.552;-0.848;2023-05-23T14:05:29;27.00;99.90
42743;DHT22;28397;44.552;-0.848;2023-05-23T14:07:55;26.80;99.90
42743;DHT22;28397;44.552;-0.848;2023-05-23T14:10:21;27.10;99.90
42743;DHT22;28397;44.552;-0.848;2023-05-23T14:12:48;27.00;99.90
42743;DHT22;28397;44.552;-0.848;2023-05-23T14:15:14;26.90;99.90
42743;DHT22;28397;44.552;-0.848;2023-05-23T14:17:40;26.90;99.90
42743;DHT22;28397;44.552;-0.848;2023-05-23T14:20:06;27.10;99.90
42743;DHT22;28397;44.552;-0.848;2023-05-23T14:22:32;27.30;99.90
42743;DHT22;28397;44.552;-0.848;2023-05-23T14:24:58;27.30;99.90
42743;DHT22;28397;44.552;-0.848;2023-05-23T14:27:25;27.30;99.90
42743;DHT22;28397;44.552;-0.848;2023-05-23T14:29:51;27.10;99.90
42743;DHT22;28397;44.552;-0.848;2023-05-23T14:32:16;27.10;99.90
42743;DHT22;28397;44.552;-0.848;2023-05-23T14:34:42;27.30;99.90
42743;DHT22;28397;44.552;-0.848;2023-05-23T14:37:08;26.80;99.90
42743;DHT22;28397;44.552;-0.848;2023-05-23T14:39:33;27.00;99.90
42743;DHT22;28397;44.552;-0.848;2023-05-23T14:42:00;27.30;99.90
42743;DHT22;28397;44.552;-0.848;2023-05-23T14:44:26;27.40;99.90
42743;DHT22;28397;44.552;-0.848;2023-05-23T14:46:52;27.40;99.90
42743;DHT22;28397;44.552;-0.848;2023-05-23T14:49:18;27.50;99.90
42743;DHT22;28397;44.552;-0.848;2023-05-23T14:51:44;27.80;99.90
42743;DHT22;28397;44.552;-0.848;2023-05-23T14:54:10;28.00;99.90
42743;DHT22;28397;44.552;-0.848;2023-05-23T14:56:35;27.90;99.90
42743;DHT22;28397;44.552;-0.848;2023-05-23T14:59:03;27.70;99.90
42743;DHT22;28397;44.552;-0.848;2023-05-23T15:01:29;27.60;99.90
42743;DHT22;28397;44.552;-0.848;2023-05-23T15:03:55;27.40;99.90
42743;DHT22;28397;44.552;-0.848;2023-05-23T15:06:21;27.60;99.90
42743;DHT22;28397;44.552;-0.848;2023-05-23T15:08:47;27.80;99.90
42743;DHT22;28397;44.552;-0.848;2023-05-23T15:11:12;27.80;99.90
42743;DHT22;28397;44.552;-0.848;2023-05-23T15:13:38;27.80;99.90
42743;DHT22;28397;44.552;-0.848;2023-05-23T15:16:04;27.60;99.90
42743;DHT22;28397;44.552;-0.848;2023-05-23T15:18:29;27.40;99.90
42743;DHT22;28397;44.552;-0.848;2023-05-23T15:20:55;27.10;99.90
42743;DHT22;28397;44.552;-0.848;2023-05-23T15:23:21;27.30;99.90
42743;DHT22;28397;44.552;-0.848;2023-05-23T15:25:47;27.50;99.90
42743;DHT22;28397;44.552;-0.848;2023-05-23T15:28:12;27.70;99.90
42743;DHT22;28397;44.552;-0.848;2023-05-23T15:30:38;27.80;99.90
42743;DHT22;28397;44.552;-0.848;2023-05-23T15:33:04;27.60;99.90